Pagrindinis puslapis
METAR-TAF:

METAR-TAF

Oro uostai :

Madridas, Ispanija

platuma: 40-27N, ilguma: 003-33W, Aukštis: 609 m

Dabartinis oras

Ataskaita buvo paskelbta 35 minutes, ne 21:30 UTC
Vėjas 2 kt iš Šiaurės/Šiaurės Rytų
Temperatūra 19°C
Drėgmė 78%
Slėgis 1020 hPa
Matomumas 10 km arba daugiau
Mažai debesys ne aukštis 5000 ft

METAR: LEMD 162130Z 03002KT 9999 FEW050 19/15 Q1020 NOSIG

Laikas: 00:05 (22:05 UTC)

Prognozė

Ataskaita buvo paskelbta 5 valandos ir 5 minutes, ne 17:00 UTC
Prognozė galioja nuo 16 metu 18 UTC su 17 metu 24 UTC
Vėjas 5 kt nuo kintamojo kryptimis
Matomumas 10 km arba daugiau
Mažai debesys ne aukštis 4500 ft

TAF: LEMD 161700Z 1618/1724 VRB05KT 9999 FEW045 TX29/1715Z TN14/1706Z

Orai ataskaitas ir orų prognozės (METAR, TAF).

turimą stotys yra geltonos ir raudonos taškus žemėlapyje.

Perkelti pele per norėdami pamatyti stoties vardą.

Tada spustelėkite, norėdami matyti oro stebėjimo ir prognozės.

Norėdami pakeisti žemėlapį: spustelėkite ant žalios mygtukų su juodo kryžiaus žemyn,; žalią mygtuką su brūkšneliu, jei norite nutolinti; arba žalių rodyklių gretimoms žemėlapius.


METAR-TAF: